Townsend, Georgia
Current Conditions -  °F | °C
As of 3:15 PM on Wednesday 28 Jan 2015 (Local Time) from KBQK Reporting Station
Clear Clear  
Wind Chill: 55°   Ceiling: Unl
Heat Index: 55°   Visibility: 10mi
Dew Point: 21°   Wind: 3mph
Humidity: 26%   Direction: 40°NE
Pressure: 30.24"   Gusts: NA
Location:  31.54°N, 81.52°W
Report Text: KBQK 282015Z AUTO 04003KT 10SM CLR 13/M06 A3024 RMK AO1
Loading
Personal Weather Stations






























Interactive Weather Map New forecast layout! Learn more

10-Day Weather Forecast

Advertisements
Track Severe Weather on mobile